Skip Navigation

Christman Field Latest Observations

Switch to english unitsOther observation timesWeekly graphs

Date Time
MST
Temp
°C
RH
%
DewPt
°C
Wind
m/s
Dir
°
Gust
m/s
Dir
°
Press
hPa
Solar
W/m^2
Prec
mm
2022-09-24 22:05 14.3 41.9 1.6 3.4 305 4.3 304 852.03 0.2 0.00
2022-09-24 22:00 14.4 40.9 1.3 3.6 301 5.0 306 851.98 0.2 0.00
2022-09-24 21:55 14.6 41.4 1.6 3.7 313 4.2 315 851.94 0.2 0.00
2022-09-24 21:50 14.2 40.3 0.8 4.2 323 4.8 327 851.92 0.2 0.00
2022-09-24 21:45 14.0 42.1 1.3 4.0 313 4.8 316 851.91 0.2 0.00
2022-09-24 21:40 14.4 40.7 1.2 3.4 312 4.7 313 851.80 0.2 0.00
2022-09-24 21:35 14.8 39.5 1.2 3.3 291 4.1 322 851.69 0.2 0.00
2022-09-24 21:30 15.3 37.6 0.9 3.3 318 4.3 318 851.62 0.2 0.00
2022-09-24 21:25 15.8 35.9 0.7 3.4 320 4.2 339 851.54 0.2 0.00
2022-09-24 21:20 15.8 33.8 -0.1 3.6 326 5.6 325 851.51 0.2 0.00
2022-09-24 21:15 15.8 34.4 0.1 3.0 318 4.1 346 851.39 0.2 0.00
2022-09-24 21:10 15.9 33.7 -0.0 3.1 339 4.4 352 851.25 0.2 0.00
2022-09-24 21:05 16.1 34.1 0.3 2.8 347 4.2 341 851.10 0.2 0.00
2022-09-24 21:00 16.0 32.7 -0.4 2.8 14 3.9 357 850.95 0.2 0.00
2022-09-24 20:55 16.1 34.4 0.4 3.6 355 4.8 326 850.75 0.2 0.00
2022-09-24 20:50 15.9 33.0 -0.3 3.9 348 5.6 2 850.55 0.2 0.00
2022-09-24 20:45 15.6 35.4 0.3 2.8 16 5.1 1 850.33 0.2 0.00
2022-09-24 20:40 14.6 34.7 -0.8 3.6 10 4.6 13 850.12 0.2 0.00
2022-09-24 20:35 12.4 40.7 -0.6 3.9 50 5.4 48 849.96 0.2 0.00
2022-09-24 20:30 12.8 50.1 2.7 1.0 58 4.1 59 849.57 0.2 0.00
2022-09-24 20:25 13.0 48.8 2.5 1.4 221 1.8 237 849.47 0.2 0.00
2022-09-24 20:20 13.1 46.4 1.9 1.4 226 1.7 232 849.37 0.2 0.00
2022-09-24 20:15 13.0 46.6 1.8 1.4 239 2.0 259 849.28 0.2 0.00
2022-09-24 20:10 14.0 46.3 2.7 1.3 289 1.7 343 849.23 0.2 0.00
2022-09-24 20:05 14.2 42.1 1.5 2.3 347 3.6 27 849.18 0.2 0.00
2022-09-24 20:00 14.8 44.3 2.8 3.9 24 5.2 33 849.10 0.2 0.00
2022-09-24 19:55 15.9 41.4 2.8 2.3 26 2.7 279 848.94 0.2 0.00
2022-09-24 19:50 15.8 36.9 1.1 2.9 269 3.4 251 848.86 0.2 0.00
2022-09-24 19:45 16.3 36.4 1.4 2.7 251 3.5 249 848.81 0.2 0.00
2022-09-24 19:40 15.9 37.4 1.4 2.9 251 3.6 252 848.73 0.2 0.00